sensor_id;sensor_type;location;lat;lon;timestamp;P1;durP1;ratioP1;P2;durP2;ratioP2
17261;SDS011;9873;52.236;21.002;2024-03-17T00:07:25;6.63;;;1.70;;
17261;SDS011;9873;52.236;21.002;2024-03-17T00:17:29;6.73;;;2.00;;
17261;SDS011;9873;52.236;21.002;2024-03-17T00:27:30;3.87;;;1.60;;
17261;SDS011;9873;52.236;21.002;2024-03-17T00:37:31;7.20;;;2.03;;
17261;SDS011;9873;52.236;21.002;2024-03-17T00:47:33;8.03;;;2.07;;
17261;SDS011;9873;52.236;21.002;2024-03-17T00:57:39;7.30;;;1.80;;
17261;SDS011;9873;52.236;21.002;2024-03-17T01:07:41;7.13;;;1.50;;
17261;SDS011;9873;52.236;21.002;2024-03-17T01:17:45;7.60;;;2.00;;
17261;SDS011;9873;52.236;21.002;2024-03-17T01:27:46;6.53;;;2.33;;
17261;SDS011;9873;52.236;21.002;2024-03-17T01:37:47;14.37;;;2.93;;
17261;SDS011;9873;52.236;21.002;2024-03-17T01:47:48;8.03;;;1.70;;
17261;SDS011;9873;52.236;21.002;2024-03-17T01:57:53;7.00;;;2.10;;
17261;SDS011;9873;52.236;21.002;2024-03-17T02:07:57;5.53;;;1.90;;
17261;SDS011;9873;52.236;21.002;2024-03-17T02:18:01;7.20;;;1.97;;
17261;SDS011;9873;52.236;21.002;2024-03-17T02:28:05;8.00;;;2.00;;
17261;SDS011;9873;52.236;21.002;2024-03-17T02:38:09;8.40;;;2.03;;
17261;SDS011;9873;52.236;21.002;2024-03-17T02:48:20;7.50;;;1.83;;
17261;SDS011;9873;52.236;21.002;2024-03-17T02:58:23;8.47;;;2.23;;
17261;SDS011;9873;52.236;21.002;2024-03-17T03:08:26;7.93;;;2.30;;
17261;SDS011;9873;52.236;21.002;2024-03-17T03:18:27;4.60;;;1.70;;
17261;SDS011;9873;52.236;21.002;2024-03-17T03:28:35;8.77;;;1.83;;
17261;SDS011;9873;52.236;21.002;2024-03-17T03:38:36;10.03;;;2.23;;
17261;SDS011;9873;52.236;21.002;2024-03-17T03:48:38;6.97;;;2.13;;
17261;SDS011;9873;52.236;21.002;2024-03-17T03:58:41;8.87;;;2.17;;
17261;SDS011;9873;52.236;21.002;2024-03-17T04:09:04;8.73;;;2.33;;
17261;SDS011;9873;52.236;21.002;2024-03-17T04:19:08;5.63;;;2.47;;
17261;SDS011;9873;52.236;21.002;2024-03-17T04:29:13;11.63;;;2.90;;
17261;SDS011;9873;52.236;21.002;2024-03-17T04:39:15;8.33;;;2.73;;
17261;SDS011;9873;52.236;21.002;2024-03-17T04:49:16;12.60;;;2.57;;
17261;SDS011;9873;52.236;21.002;2024-03-17T04:59:21;5.17;;;2.33;;
17261;SDS011;9873;52.236;21.002;2024-03-17T05:09:31;5.27;;;2.43;;
17261;SDS011;9873;52.236;21.002;2024-03-17T05:19:32;6.67;;;2.33;;
17261;SDS011;9873;52.236;21.002;2024-03-17T05:29:34;8.83;;;3.60;;
17261;SDS011;9873;52.236;21.002;2024-03-17T05:39:41;7.47;;;2.77;;
17261;SDS011;9873;52.236;21.002;2024-03-17T05:49:42;5.67;;;2.67;;
17261;SDS011;9873;52.236;21.002;2024-03-17T05:59:46;5.83;;;2.63;;
17261;SDS011;9873;52.236;21.002;2024-03-17T06:09:51;6.27;;;2.30;;
17261;SDS011;9873;52.236;21.002;2024-03-17T06:19:53;7.13;;;2.70;;
17261;SDS011;9873;52.236;21.002;2024-03-17T06:29:57;6.73;;;2.93;;
17261;SDS011;9873;52.236;21.002;2024-03-17T06:40:02;7.77;;;2.33;;
17261;SDS011;9873;52.236;21.002;2024-03-17T06:50:06;5.87;;;2.47;;
17261;SDS011;9873;52.236;21.002;2024-03-17T07:00:13;2.70;;;1.50;;
17261;SDS011;9873;52.236;21.002;2024-03-17T07:10:17;8.30;;;2.75;;
17261;SDS011;9873;52.236;21.002;2024-03-17T07:20:23;9.07;;;2.10;;
17261;SDS011;9873;52.236;21.002;2024-03-17T07:30:32;4.03;;;1.23;;
17261;SDS011;9873;52.236;21.002;2024-03-17T07:40:35;7.90;;;2.30;;
17261;SDS011;9873;52.236;21.002;2024-03-17T07:50:39;8.13;;;2.33;;
17261;SDS011;9873;52.236;21.002;2024-03-17T08:00:41;6.77;;;2.30;;
17261;SDS011;9873;52.236;21.002;2024-03-17T08:21:22;9.37;;;2.10;;
17261;SDS011;9873;52.236;21.002;2024-03-17T08:31:31;8.63;;;2.40;;
17261;SDS011;9873;52.236;21.002;2024-03-17T08:41:32;10.30;;;2.60;;
17261;SDS011;9873;52.236;21.002;2024-03-17T08:51:39;5.63;;;2.20;;
17261;SDS011;9873;52.236;21.002;2024-03-17T09:01:43;5.90;;;2.20;;
17261;SDS011;9873;52.236;21.002;2024-03-17T09:11:47;8.33;;;3.47;;
17261;SDS011;9873;52.236;21.002;2024-03-17T09:21:51;7.63;;;2.80;;
17261;SDS011;9873;52.236;21.002;2024-03-17T09:31:52;6.97;;;2.30;;
17261;SDS011;9873;52.236;21.002;2024-03-17T09:41:55;4.70;;;2.10;;
17261;SDS011;9873;52.236;21.002;2024-03-17T10:02:32;4.43;;;1.70;;
17261;SDS011;9873;52.236;21.002;2024-03-17T10:12:40;4.97;;;1.97;;
17261;SDS011;9873;52.236;21.002;2024-03-17T10:23:03;2.50;;;1.63;;
17261;SDS011;9873;52.236;21.002;2024-03-17T10:33:20;4.57;;;1.97;;
17261;SDS011;9873;52.236;21.002;2024-03-17T10:43:28;3.20;;;2.00;;
17261;SDS011;9873;52.236;21.002;2024-03-17T10:53:36;3.17;;;2.03;;
17261;SDS011;9873;52.236;21.002;2024-03-17T11:03:46;3.07;;;2.17;;
17261;SDS011;9873;52.236;21.002;2024-03-17T11:13:47;4.87;;;2.10;;
17261;SDS011;9873;52.236;21.002;2024-03-17T11:24:01;3.53;;;2.00;;
17261;SDS011;9873;52.236;21.002;2024-03-17T11:54:44;2.97;;;2.23;;
17261;SDS011;9873;52.236;21.002;2024-03-17T12:04:49;3.70;;;1.60;;
17261;SDS011;9873;52.236;21.002;2024-03-17T12:24:58;1.70;;;1.60;;
17261;SDS011;9873;52.236;21.002;2024-03-17T12:35:25;1.67;;;1.57;;
17261;SDS011;9873;52.236;21.002;2024-03-17T12:45:29;1.53;;;1.27;;
17261;SDS011;9873;52.236;21.002;2024-03-17T12:55:32;1.83;;;1.30;;
17261;SDS011;9873;52.236;21.002;2024-03-17T13:05:52;3.03;;;1.80;;
17261;SDS011;9873;52.236;21.002;2024-03-17T13:15:55;1.43;;;1.30;;
17261;SDS011;9873;52.236;21.002;2024-03-17T13:26:06;3.50;;;1.40;;
17261;SDS011;9873;52.236;21.002;2024-03-17T13:36:10;3.13;;;1.93;;
17261;SDS011;9873;52.236;21.002;2024-03-17T13:46:14;1.60;;;1.00;;
17261;SDS011;9873;52.236;21.002;2024-03-17T13:56:17;2.00;;;1.20;;
17261;SDS011;9873;52.236;21.002;2024-03-17T14:06:23;4.67;;;2.50;;
17261;SDS011;9873;52.236;21.002;2024-03-17T14:16:26;3.60;;;1.80;;
17261;SDS011;9873;52.236;21.002;2024-03-17T14:26:29;1.83;;;1.60;;
17261;SDS011;9873;52.236;21.002;2024-03-17T14:36:31;3.73;;;2.20;;
17261;SDS011;9873;52.236;21.002;2024-03-17T14:46:33;4.00;;;2.40;;
17261;SDS011;9873;52.236;21.002;2024-03-17T14:56:39;3.10;;;2.30;;
17261;SDS011;9873;52.236;21.002;2024-03-17T15:16:56;4.43;;;2.97;;
17261;SDS011;9873;52.236;21.002;2024-03-17T15:26:58;3.23;;;2.13;;
17261;SDS011;9873;52.236;21.002;2024-03-17T15:37:05;2.80;;;2.17;;
17261;SDS011;9873;52.236;21.002;2024-03-17T15:47:09;2.70;;;2.30;;
17261;SDS011;9873;52.236;21.002;2024-03-17T15:57:13;5.73;;;4.17;;
17261;SDS011;9873;52.236;21.002;2024-03-17T16:07:15;3.90;;;3.33;;
17261;SDS011;9873;52.236;21.002;2024-03-17T16:17:18;3.93;;;2.63;;
17261;SDS011;9873;52.236;21.002;2024-03-17T16:27:44;5.73;;;3.70;;
17261;SDS011;9873;52.236;21.002;2024-03-17T16:47:58;3.47;;;2.80;;
17261;SDS011;9873;52.236;21.002;2024-03-17T16:58:00;3.47;;;3.17;;
17261;SDS011;9873;52.236;21.002;2024-03-17T17:08:01;5.63;;;3.70;;
17261;SDS011;9873;52.236;21.002;2024-03-17T17:18:45;4.20;;;2.83;;
17261;SDS011;9873;52.236;21.002;2024-03-17T17:29:10;3.23;;;2.30;;
17261;SDS011;9873;52.236;21.002;2024-03-17T17:39:16;4.60;;;2.10;;
17261;SDS011;9873;52.236;21.002;2024-03-17T17:49:22;4.33;;;3.03;;
17261;SDS011;9873;52.236;21.002;2024-03-17T18:10:38;7.40;;;3.70;;
17261;SDS011;9873;52.236;21.002;2024-03-17T18:20:39;6.07;;;3.90;;
17261;SDS011;9873;52.236;21.002;2024-03-17T18:30:43;3.40;;;2.40;;
17261;SDS011;9873;52.236;21.002;2024-03-17T18:40:45;4.13;;;3.10;;
17261;SDS011;9873;52.236;21.002;2024-03-17T18:50:55;5.00;;;2.30;;
17261;SDS011;9873;52.236;21.002;2024-03-17T19:01:00;4.50;;;2.30;;
17261;SDS011;9873;52.236;21.002;2024-03-17T19:11:03;4.80;;;3.43;;
17261;SDS011;9873;52.236;21.002;2024-03-17T19:21:10;4.27;;;2.43;;
17261;SDS011;9873;52.236;21.002;2024-03-17T19:31:18;12.00;;;2.40;;
17261;SDS011;9873;52.236;21.002;2024-03-17T19:41:54;4.90;;;2.60;;
17261;SDS011;9873;52.236;21.002;2024-03-17T19:52:28;4.47;;;2.20;;
17261;SDS011;9873;52.236;21.002;2024-03-17T20:02:33;4.80;;;2.77;;
17261;SDS011;9873;52.236;21.002;2024-03-17T20:12:34;4.57;;;2.87;;
17261;SDS011;9873;52.236;21.002;2024-03-17T20:22:38;2.53;;;1.93;;
17261;SDS011;9873;52.236;21.002;2024-03-17T20:32:42;1.70;;;1.30;;
17261;SDS011;9873;52.236;21.002;2024-03-17T20:42:53;2.20;;;1.43;;
17261;SDS011;9873;52.236;21.002;2024-03-17T20:52:55;2.40;;;1.17;;
17261;SDS011;9873;52.236;21.002;2024-03-17T21:02:59;2.23;;;1.80;;
17261;SDS011;9873;52.236;21.002;2024-03-17T21:13:09;3.00;;;2.20;;
17261;SDS011;9873;52.236;21.002;2024-03-17T21:23:16;3.70;;;2.30;;
17261;SDS011;9873;52.236;21.002;2024-03-17T21:33:22;2.23;;;1.80;;
17261;SDS011;9873;52.236;21.002;2024-03-17T21:43:28;3.03;;;2.40;;
17261;SDS011;9873;52.236;21.002;2024-03-17T21:53:31;2.47;;;1.87;;
17261;SDS011;9873;52.236;21.002;2024-03-17T22:03:35;3.20;;;2.63;;
17261;SDS011;9873;52.236;21.002;2024-03-17T22:13:39;2.93;;;2.30;;
17261;SDS011;9873;52.236;21.002;2024-03-17T22:23:45;3.83;;;2.00;;
17261;SDS011;9873;52.236;21.002;2024-03-17T22:33:51;3.53;;;2.27;;
17261;SDS011;9873;52.236;21.002;2024-03-17T22:43:55;2.77;;;1.90;;
17261;SDS011;9873;52.236;21.002;2024-03-17T22:53:56;5.27;;;2.53;;
17261;SDS011;9873;52.236;21.002;2024-03-17T23:03:57;3.60;;;1.80;;
17261;SDS011;9873;52.236;21.002;2024-03-17T23:14:00;2.87;;;1.80;;
17261;SDS011;9873;52.236;21.002;2024-03-17T23:24:05;3.37;;;1.67;;
17261;SDS011;9873;52.236;21.002;2024-03-17T23:34:07;4.40;;;2.27;;
17261;SDS011;9873;52.236;21.002;2024-03-17T23:44:15;3.33;;;1.83;;
17261;SDS011;9873;52.236;21.002;2024-03-17T23:54:18;3.00;;;2.13;;
